BAW860J EGLL-LKPR
Flight info
| Callsign | BAW860J |
|---|---|
| Flight time | N/A |
| Altitude | 37000 |
| Route | BPK Q295 BRAIN M197 REDFA DCT TACHA DCT NOMKA DCT SUVUT L620 PIKIB T620 LALUK DCT GOLOP |
| Aircraft | A320/M-SDE3FGHIJ1RWXY/S |
Departure
| Time | 2026-05-05 13:09 |
|---|---|
| Airport | London Heathrow Airport (EGLL) |
Arrival
| Time | N/A |
|---|---|
| Airport | Václav Havel Airport Prague (LKPR) |
| Time | Latitude | Longitude | Altitude | Speed | Heading |
|---|---|---|---|---|---|
| 2026-05-05 12:24 | 51.47188 | -0.48589 | 86 ft | 0 kts | 269° |
| 2026-05-05 12:57 | 51.47188 | -0.48578 | 89 ft | 4 kts | 269° |
| 2026-05-05 12:58 | 51.47188 | -0.48535 | 86 ft | 3 kts | 269° |
| 2026-05-05 12:58 | 51.47189 | -0.48501 | 86 ft | 4 kts | 248° |
| 2026-05-05 12:58 | 51.47204 | -0.48474 | 88 ft | 4 kts | 187° |
| 2026-05-05 12:58 | 51.47227 | -0.48473 | 86 ft | 1 kts | 179° |
| 2026-05-05 13:01 | 51.47205 | -0.48473 | 87 ft | 9 kts | 179° |
| 2026-05-05 13:02 | 51.47133 | -0.48472 | 87 ft | 11 kts | 179° |
| 2026-05-05 13:02 | 51.47050 | -0.48471 | 89 ft | 13 kts | 179° |
| 2026-05-05 13:02 | 51.46989 | -0.48470 | 89 ft | 0 kts | 179° |
| 2026-05-05 13:03 | 51.46981 | -0.48470 | 89 ft | 4 kts | 179° |
| 2026-05-05 13:03 | 51.46943 | -0.48469 | 87 ft | 6 kts | 180° |
| 2026-05-05 13:03 | 51.46892 | -0.48470 | 88 ft | 8 kts | 180° |
| 2026-05-05 13:03 | 51.46831 | -0.48470 | 86 ft | 10 kts | 180° |
| 2026-05-05 13:04 | 51.46759 | -0.48469 | 86 ft | 11 kts | 179° |
| 2026-05-05 13:04 | 51.46675 | -0.48468 | 86 ft | 13 kts | 179° |
| 2026-05-05 13:04 | 51.46599 | -0.48467 | 86 ft | 7 kts | 179° |
| 2026-05-05 13:04 | 51.46595 | -0.48467 | 86 ft | 0 kts | 179° |
| 2026-05-05 13:05 | 51.46576 | -0.48467 | 86 ft | 6 kts | 179° |
| 2026-05-05 13:05 | 51.46528 | -0.48466 | 86 ft | 8 kts | 179° |
| 2026-05-05 13:06 | 51.46483 | -0.48455 | 88 ft | 5 kts | 136° |
| 2026-05-05 13:06 | 51.46480 | -0.48401 | 87 ft | 0 kts | 90° |
| 2026-05-05 13:07 | 51.46480 | -0.48382 | 87 ft | 9 kts | 90° |
| 2026-05-05 13:08 | 51.46481 | -0.47941 | 87 ft | 73 kts | 90° |
| 2026-05-05 13:08 | 51.46485 | -0.46816 | 90 ft | 126 kts | 90° |
| 2026-05-05 13:08 | 51.46491 | -0.45172 | 98 ft | 167 kts | 88° |
| 2026-05-05 13:08 | 51.46502 | -0.43316 | 674 ft | 165 kts | 87° |
| 2026-05-05 13:09 | 51.46526 | -0.41476 | 1337 ft | 164 kts | 81° |
| 2026-05-05 13:09 | 51.47021 | -0.39845 | 1740 ft | 172 kts | 42° |
| 2026-05-05 13:09 | 51.47934 | -0.38424 | 2023 ft | 193 kts | 45° |
| 2026-05-05 13:09 | 51.48894 | -0.36719 | 2224 ft | 220 kts | 47° |
| 2026-05-05 13:10 | 51.49945 | -0.34768 | 2644 ft | 241 kts | 48° |
| 2026-05-05 13:10 | 51.51050 | -0.32670 | 3463 ft | 249 kts | 49° |
| 2026-05-05 13:10 | 51.52120 | -0.30455 | 4314 ft | 254 kts | 59° |
| 2026-05-05 13:10 | 51.52784 | -0.27804 | 5178 ft | 258 kts | 70° |
| 2026-05-05 13:11 | 51.53393 | -0.25024 | 5831 ft | 263 kts | 65° |
| 2026-05-05 13:11 | 51.54177 | -0.22348 | 6593 ft | 267 kts | 64° |
| 2026-05-05 13:11 | 51.55011 | -0.19662 | 7370 ft | 270 kts | 63° |
| 2026-05-05 13:11 | 51.55870 | -0.16947 | 8125 ft | 275 kts | 63° |
| 2026-05-05 13:12 | 51.56746 | -0.14188 | 8866 ft | 280 kts | 63° |
| 2026-05-05 13:12 | 51.57636 | -0.11373 | 9612 ft | 284 kts | 62° |
| 2026-05-05 13:12 | 51.58534 | -0.08519 | 10253 ft | 291 kts | 63° |
| 2026-05-05 13:12 | 51.59479 | -0.05498 | 10441 ft | 314 kts | 63° |
| 2026-05-05 13:13 | 51.60488 | -0.02253 | 10599 ft | 335 kts | 63° |
| 2026-05-05 13:13 | 51.61543 | 0.01154 | 11059 ft | 343 kts | 63° |
| 2026-05-05 13:13 | 51.62611 | 0.04607 | 11692 ft | 347 kts | 63° |
| 2026-05-05 13:13 | 51.63687 | 0.08101 | 12352 ft | 349 kts | 63° |
| 2026-05-05 13:14 | 51.64773 | 0.11622 | 13004 ft | 352 kts | 63° |
| 2026-05-05 13:14 | 51.65868 | 0.15162 | 13682 ft | 355 kts | 63° |
| 2026-05-05 13:14 | 51.66970 | 0.18733 | 14258 ft | 358 kts | 63° |
| 2026-05-05 13:14 | 51.68081 | 0.22342 | 14825 ft | 361 kts | 63° |
| 2026-05-05 13:15 | 51.69202 | 0.25985 | 15373 ft | 364 kts | 63° |
| 2026-05-05 13:15 | 51.70327 | 0.29657 | 15920 ft | 367 kts | 64° |
| 2026-05-05 13:15 | 51.71459 | 0.33364 | 16458 ft | 370 kts | 64° |
| 2026-05-05 13:15 | 51.72601 | 0.37106 | 17004 ft | 374 kts | 64° |
| 2026-05-05 13:16 | 51.73752 | 0.40877 | 17557 ft | 377 kts | 64° |
| 2026-05-05 13:16 | 51.74917 | 0.44697 | 18114 ft | 380 kts | 64° |
| 2026-05-05 13:16 | 51.76087 | 0.48545 | 18607 ft | 384 kts | 64° |
| 2026-05-05 13:16 | 51.77265 | 0.52432 | 19104 ft | 387 kts | 64° |
| 2026-05-05 13:17 | 51.78451 | 0.56360 | 19603 ft | 391 kts | 64° |